sensor_id;sensor_type;location;lat;lon;timestamp;temperature;humidity
36132;DHT22;22185;48.738;9.324;2022-11-15T00:00:45;6.90;99.90
36132;DHT22;22185;48.738;9.324;2022-11-15T00:02:48;6.90;99.90
36132;DHT22;22185;48.738;9.324;2022-11-15T00:04:51;6.90;99.90
36132;DHT22;22185;48.738;9.324;2022-11-15T00:06:52;6.90;99.90
36132;DHT22;22185;48.738;9.324;2022-11-15T00:08:57;6.90;99.90
36132;DHT22;22185;48.738;9.324;2022-11-15T00:10:59;6.90;99.90
36132;DHT22;22185;48.738;9.324;2022-11-15T00:13:05;6.90;99.90
36132;DHT22;22185;48.738;9.324;2022-11-15T00:15:07;6.90;99.90
36132;DHT22;22185;48.738;9.324;2022-11-15T00:17:09;7.00;99.90
36132;DHT22;22185;48.738;9.324;2022-11-15T00:19:11;7.10;99.90
36132;DHT22;22185;48.738;9.324;2022-11-15T00:21:18;7.00;99.90
36132;DHT22;22185;48.738;9.324;2022-11-15T00:23:20;7.00;99.90
36132;DHT22;22185;48.738;9.324;2022-11-15T00:25:22;7.00;99.90
36132;DHT22;22185;48.738;9.324;2022-11-15T00:27:24;6.90;99.90
36132;DHT22;22185;48.738;9.324;2022-11-15T00:29:26;6.90;99.90
36132;DHT22;22185;48.738;9.324;2022-11-15T00:31:28;6.90;99.90
36132;DHT22;22185;48.738;9.324;2022-11-15T00:33:30;6.90;99.90
36132;DHT22;22185;48.738;9.324;2022-11-15T00:35:33;6.90;99.90
36132;DHT22;22185;48.738;9.324;2022-11-15T00:37:35;6.80;99.90
36132;DHT22;22185;48.738;9.324;2022-11-15T00:39:38;6.80;99.90
36132;DHT22;22185;48.738;9.324;2022-11-15T00:41:47;6.80;99.90
36132;DHT22;22185;48.738;9.324;2022-11-15T00:43:52;6.80;99.90
36132;DHT22;22185;48.738;9.324;2022-11-15T00:45:54;6.80;99.90
36132;DHT22;22185;48.738;9.324;2022-11-15T00:47:56;6.70;99.90
36132;DHT22;22185;48.738;9.324;2022-11-15T00:49:58;6.70;99.90
36132;DHT22;22185;48.738;9.324;2022-11-15T00:52:00;6.70;99.90
36132;DHT22;22185;48.738;9.324;2022-11-15T00:54:02;6.60;99.90
36132;DHT22;22185;48.738;9.324;2022-11-15T00:56:03;6.60;99.90
36132;DHT22;22185;48.738;9.324;2022-11-15T00:58:05;6.50;99.90
36132;DHT22;22185;48.738;9.324;2022-11-15T01:00:07;6.50;99.90
36132;DHT22;22185;48.738;9.324;2022-11-15T01:02:09;6.40;99.90
36132;DHT22;22185;48.738;9.324;2022-11-15T01:04:11;6.40;99.90
36132;DHT22;22185;48.738;9.324;2022-11-15T01:06:12;6.40;99.90
36132;DHT22;22185;48.738;9.324;2022-11-15T01:08:14;6.30;99.90
36132;DHT22;22185;48.738;9.324;2022-11-15T01:10:16;6.40;99.90
36132;DHT22;22185;48.738;9.324;2022-11-15T01:12:18;6.30;99.90
36132;DHT22;22185;48.738;9.324;2022-11-15T01:14:20;6.30;99.90
36132;DHT22;22185;48.738;9.324;2022-11-15T01:16:26;6.20;99.90
36132;DHT22;22185;48.738;9.324;2022-11-15T01:18:27;6.20;99.90
36132;DHT22;22185;48.738;9.324;2022-11-15T01:20:29;6.10;99.90
36132;DHT22;22185;48.738;9.324;2022-11-15T01:22:31;6.20;99.90
36132;DHT22;22185;48.738;9.324;2022-11-15T01:24:33;6.10;99.90
36132;DHT22;22185;48.738;9.324;2022-11-15T01:26:34;6.10;99.90
36132;DHT22;22185;48.738;9.324;2022-11-15T01:28:37;6.10;99.90
36132;DHT22;22185;48.738;9.324;2022-11-15T01:30:39;6.10;99.90
36132;DHT22;22185;48.738;9.324;2022-11-15T01:32:41;6.00;99.90
36132;DHT22;22185;48.738;9.324;2022-11-15T01:34:43;6.00;99.90
36132;DHT22;22185;48.738;9.324;2022-11-15T01:36:44;6.10;99.90
36132;DHT22;22185;48.738;9.324;2022-11-15T01:38:46;6.00;99.90
36132;DHT22;22185;48.738;9.324;2022-11-15T01:40:48;5.90;99.90
36132;DHT22;22185;48.738;9.324;2022-11-15T01:42:50;5.90;99.90
36132;DHT22;22185;48.738;9.324;2022-11-15T01:44:52;5.90;99.90
36132;DHT22;22185;48.738;9.324;2022-11-15T01:46:56;5.90;99.90
36132;DHT22;22185;48.738;9.324;2022-11-15T01:49:00;5.80;99.90
36132;DHT22;22185;48.738;9.324;2022-11-15T01:51:05;5.80;99.90
36132;DHT22;22185;48.738;9.324;2022-11-15T01:53:08;5.80;99.90
36132;DHT22;22185;48.738;9.324;2022-11-15T01:55:19;5.80;99.90
36132;DHT22;22185;48.738;9.324;2022-11-15T01:57:21;5.80;99.90
36132;DHT22;22185;48.738;9.324;2022-11-15T01:59:23;5.90;99.90
36132;DHT22;22185;48.738;9.324;2022-11-15T02:01:25;5.90;99.90
36132;DHT22;22185;48.738;9.324;2022-11-15T02:03:34;5.80;99.90
36132;DHT22;22185;48.738;9.324;2022-11-15T02:05:38;5.80;99.90
36132;DHT22;22185;48.738;9.324;2022-11-15T02:07:39;5.70;99.90
36132;DHT22;22185;48.738;9.324;2022-11-15T02:09:42;5.70;99.90
36132;DHT22;22185;48.738;9.324;2022-11-15T02:11:44;5.70;99.90
36132;DHT22;22185;48.738;9.324;2022-11-15T02:13:47;5.70;99.90
36132;DHT22;22185;48.738;9.324;2022-11-15T02:16:00;5.70;99.90
36132;DHT22;22185;48.738;9.324;2022-11-15T02:18:12;5.70;99.90
36132;DHT22;22185;48.738;9.324;2022-11-15T02:28:42;5.70;99.90
36132;DHT22;22185;48.738;9.324;2022-11-15T02:31:03;5.70;99.90
36132;DHT22;22185;48.738;9.324;2022-11-15T02:35:29;5.60;99.90
36132;DHT22;22185;48.738;9.324;2022-11-15T02:39:50;5.60;99.90
36132;DHT22;22185;48.738;9.324;2022-11-15T02:42:02;5.50;99.90
36132;DHT22;22185;48.738;9.324;2022-11-15T02:44:11;5.60;99.90
36132;DHT22;22185;48.738;9.324;2022-11-15T02:46:18;5.60;99.90
36132;DHT22;22185;48.738;9.324;2022-11-15T02:48:23;5.50;99.90
36132;DHT22;22185;48.738;9.324;2022-11-15T02:50:27;5.50;99.90
36132;DHT22;22185;48.738;9.324;2022-11-15T02:52:29;5.50;99.90
36132;DHT22;22185;48.738;9.324;2022-11-15T02:54:31;5.50;99.90
36132;DHT22;22185;48.738;9.324;2022-11-15T02:56:34;5.50;99.90
36132;DHT22;22185;48.738;9.324;2022-11-15T02:58:52;5.50;99.90
36132;DHT22;22185;48.738;9.324;2022-11-15T03:06:03;5.70;99.90
36132;DHT22;22185;48.738;9.324;2022-11-15T03:09:55;5.70;99.90
36132;DHT22;22185;48.738;9.324;2022-11-15T03:12:01;5.60;99.90
36132;DHT22;22185;48.738;9.324;2022-11-15T03:16:08;5.70;99.90
36132;DHT22;22185;48.738;9.324;2022-11-15T03:18:21;5.70;99.90
36132;DHT22;22185;48.738;9.324;2022-11-15T03:20:26;5.70;99.90
36132;DHT22;22185;48.738;9.324;2022-11-15T03:22:29;5.60;99.90
36132;DHT22;22185;48.738;9.324;2022-11-15T03:24:33;5.70;99.90
36132;DHT22;22185;48.738;9.324;2022-11-15T03:26:36;5.80;99.90
36132;DHT22;22185;48.738;9.324;2022-11-15T03:28:47;5.90;99.90
36132;DHT22;22185;48.738;9.324;2022-11-15T03:30:51;6.10;99.90
36132;DHT22;22185;48.738;9.324;2022-11-15T03:32:55;6.10;99.90
36132;DHT22;22185;48.738;9.324;2022-11-15T03:37:08;6.00;99.90
36132;DHT22;22185;48.738;9.324;2022-11-15T03:39:11;5.90;99.90
36132;DHT22;22185;48.738;9.324;2022-11-15T03:41:40;5.70;99.90
36132;DHT22;22185;48.738;9.324;2022-11-15T03:43:47;5.70;99.90
36132;DHT22;22185;48.738;9.324;2022-11-15T03:46:05;5.50;99.90
36132;DHT22;22185;48.738;9.324;2022-11-15T03:48:13;5.70;99.90
36132;DHT22;22185;48.738;9.324;2022-11-15T03:50:17;5.70;99.90
36132;DHT22;22185;48.738;9.324;2022-11-15T03:52:20;5.80;99.90
36132;DHT22;22185;48.738;9.324;2022-11-15T03:54:23;5.80;99.90
36132;DHT22;22185;48.738;9.324;2022-11-15T03:56:25;5.80;99.90
36132;DHT22;22185;48.738;9.324;2022-11-15T03:58:26;5.80;99.90
36132;DHT22;22185;48.738;9.324;2022-11-15T04:00:28;5.50;99.90
36132;DHT22;22185;48.738;9.324;2022-11-15T04:02:30;5.50;99.90
36132;DHT22;22185;48.738;9.324;2022-11-15T04:04:33;5.50;99.90
36132;DHT22;22185;48.738;9.324;2022-11-15T04:06:34;5.50;99.90
36132;DHT22;22185;48.738;9.324;2022-11-15T04:08:52;5.50;99.90
36132;DHT22;22185;48.738;9.324;2022-11-15T04:10:53;5.40;99.90
36132;DHT22;22185;48.738;9.324;2022-11-15T04:12:56;5.40;99.90
36132;DHT22;22185;48.738;9.324;2022-11-15T04:14:58;5.40;99.90
36132;DHT22;22185;48.738;9.324;2022-11-15T04:17:09;5.40;99.90
36132;DHT22;22185;48.738;9.324;2022-11-15T04:19:11;5.60;99.90
36132;DHT22;22185;48.738;9.324;2022-11-15T04:21:31;5.60;99.90
36132;DHT22;22185;48.738;9.324;2022-11-15T04:23:51;5.50;99.90
36132;DHT22;22185;48.738;9.324;2022-11-15T04:25:56;5.40;99.90
36132;DHT22;22185;48.738;9.324;2022-11-15T04:27:59;5.40;99.90
36132;DHT22;22185;48.738;9.324;2022-11-15T04:30:00;5.30;99.90
36132;DHT22;22185;48.738;9.324;2022-11-15T04:32:03;5.30;99.90
36132;DHT22;22185;48.738;9.324;2022-11-15T04:34:05;5.30;99.90
36132;DHT22;22185;48.738;9.324;2022-11-15T04:36:06;5.30;99.90
36132;DHT22;22185;48.738;9.324;2022-11-15T04:38:27;5.30;99.90
36132;DHT22;22185;48.738;9.324;2022-11-15T04:40:29;5.20;99.90
36132;DHT22;22185;48.738;9.324;2022-11-15T04:42:30;5.20;99.90
36132;DHT22;22185;48.738;9.324;2022-11-15T04:44:32;5.20;99.90
36132;DHT22;22185;48.738;9.324;2022-11-15T04:46:33;5.20;99.90
36132;DHT22;22185;48.738;9.324;2022-11-15T04:48:35;5.20;99.90
36132;DHT22;22185;48.738;9.324;2022-11-15T04:50:36;5.20;99.90
36132;DHT22;22185;48.738;9.324;2022-11-15T04:52:41;5.20;99.90
36132;DHT22;22185;48.738;9.324;2022-11-15T04:54:43;5.10;99.90
36132;DHT22;22185;48.738;9.324;2022-11-15T04:56:46;5.10;99.90
36132;DHT22;22185;48.738;9.324;2022-11-15T04:58:50;5.10;99.90
36132;DHT22;22185;48.738;9.324;2022-11-15T05:00:52;5.10;99.90
36132;DHT22;22185;48.738;9.324;2022-11-15T05:02:54;5.10;99.90
36132;DHT22;22185;48.738;9.324;2022-11-15T05:05:14;5.10;99.90
36132;DHT22;22185;48.738;9.324;2022-11-15T05:07:16;5.10;99.90
36132;DHT22;22185;48.738;9.324;2022-11-15T05:09:18;5.10;99.90
36132;DHT22;22185;48.738;9.324;2022-11-15T05:11:20;5.10;99.90
36132;DHT22;22185;48.738;9.324;2022-11-15T05:13:22;5.10;99.90
36132;DHT22;22185;48.738;9.324;2022-11-15T05:15:24;5.10;99.90
36132;DHT22;22185;48.738;9.324;2022-11-15T05:17:25;5.10;99.90
36132;DHT22;22185;48.738;9.324;2022-11-15T05:19:27;5.10;99.90
36132;DHT22;22185;48.738;9.324;2022-11-15T05:21:28;5.10;99.90
36132;DHT22;22185;48.738;9.324;2022-11-15T05:23:30;5.10;99.90
36132;DHT22;22185;48.738;9.324;2022-11-15T05:25:32;5.00;99.90
36132;DHT22;22185;48.738;9.324;2022-11-15T05:27:34;4.90;99.90
36132;DHT22;22185;48.738;9.324;2022-11-15T05:29:35;4.90;99.90
36132;DHT22;22185;48.738;9.324;2022-11-15T05:31:39;5.00;99.90
36132;DHT22;22185;48.738;9.324;2022-11-15T05:33:41;5.00;99.90
36132;DHT22;22185;48.738;9.324;2022-11-15T05:35:45;5.00;99.90
36132;DHT22;22185;48.738;9.324;2022-11-15T05:37:47;5.00;99.90
36132;DHT22;22185;48.738;9.324;2022-11-15T05:39:49;5.00;99.90
36132;DHT22;22185;48.738;9.324;2022-11-15T05:41:52;4.90;99.90
36132;DHT22;22185;48.738;9.324;2022-11-15T05:43:55;4.90;99.90
36132;DHT22;22185;48.738;9.324;2022-11-15T05:45:57;4.80;99.90
36132;DHT22;22185;48.738;9.324;2022-11-15T05:47:59;4.90;99.90
36132;DHT22;22185;48.738;9.324;2022-11-15T05:50:01;5.00;99.90
36132;DHT22;22185;48.738;9.324;2022-11-15T05:52:04;5.10;99.90
36132;DHT22;22185;48.738;9.324;2022-11-15T05:54:06;4.90;99.90
36132;DHT22;22185;48.738;9.324;2022-11-15T05:56:08;4.90;99.90
36132;DHT22;22185;48.738;9.324;2022-11-15T05:58:10;4.90;99.90
36132;DHT22;22185;48.738;9.324;2022-11-15T06:00:12;4.90;99.90
36132;DHT22;22185;48.738;9.324;2022-11-15T06:02:13;4.80;99.90
36132;DHT22;22185;48.738;9.324;2022-11-15T06:04:15;4.70;99.90
36132;DHT22;22185;48.738;9.324;2022-11-15T06:06:17;4.80;99.90
36132;DHT22;22185;48.738;9.324;2022-11-15T06:08:18;4.90;99.90
36132;DHT22;22185;48.738;9.324;2022-11-15T06:10:20;4.90;99.90
36132;DHT22;22185;48.738;9.324;2022-11-15T06:12:22;4.80;99.90
36132;DHT22;22185;48.738;9.324;2022-11-15T06:14:23;4.60;99.90
36132;DHT22;22185;48.738;9.324;2022-11-15T06:16:25;4.60;99.90
36132;DHT22;22185;48.738;9.324;2022-11-15T06:18:26;4.70;99.90
36132;DHT22;22185;48.738;9.324;2022-11-15T06:20:28;4.80;99.90
36132;DHT22;22185;48.738;9.324;2022-11-15T06:22:30;4.70;99.90
36132;DHT22;22185;48.738;9.324;2022-11-15T06:24:32;4.70;99.90
36132;DHT22;22185;48.738;9.324;2022-11-15T06:26:33;4.70;99.90
36132;DHT22;22185;48.738;9.324;2022-11-15T06:28:35;4.70;99.90
36132;DHT22;22185;48.738;9.324;2022-11-15T06:30:36;4.90;99.90
36132;DHT22;22185;48.738;9.324;2022-11-15T06:32:38;4.80;99.90
36132;DHT22;22185;48.738;9.324;2022-11-15T06:34:40;4.80;99.90
36132;DHT22;22185;48.738;9.324;2022-11-15T06:36:41;4.70;99.90
36132;DHT22;22185;48.738;9.324;2022-11-15T06:38:43;4.70;99.90
36132;DHT22;22185;48.738;9.324;2022-11-15T06:40:45;4.60;99.90
36132;DHT22;22185;48.738;9.324;2022-11-15T06:42:47;4.60;99.90
36132;DHT22;22185;48.738;9.324;2022-11-15T06:44:52;4.50;99.90
36132;DHT22;22185;48.738;9.324;2022-11-15T06:46:53;4.60;99.90
36132;DHT22;22185;48.738;9.324;2022-11-15T06:48:56;4.60;99.90
36132;DHT22;22185;48.738;9.324;2022-11-15T06:50:58;4.60;99.90
36132;DHT22;22185;48.738;9.324;2022-11-15T06:53:01;4.70;99.90
36132;DHT22;22185;48.738;9.324;2022-11-15T06:55:03;4.70;99.90
36132;DHT22;22185;48.738;9.324;2022-11-15T06:57:05;4.80;99.90
36132;DHT22;22185;48.738;9.324;2022-11-15T06:59:06;4.80;99.90
36132;DHT22;22185;48.738;9.324;2022-11-15T07:01:09;4.70;99.90
36132;DHT22;22185;48.738;9.324;2022-11-15T07:03:11;4.80;99.90
36132;DHT22;22185;48.738;9.324;2022-11-15T07:05:14;4.90;99.90
36132;DHT22;22185;48.738;9.324;2022-11-15T07:07:22;4.90;99.90
36132;DHT22;22185;48.738;9.324;2022-11-15T07:09:24;4.90;99.90
36132;DHT22;22185;48.738;9.324;2022-11-15T07:11:25;5.00;99.90
36132;DHT22;22185;48.738;9.324;2022-11-15T07:13:27;5.00;99.90
36132;DHT22;22185;48.738;9.324;2022-11-15T07:15:30;5.00;99.90
36132;DHT22;22185;48.738;9.324;2022-11-15T07:17:32;5.10;99.90
36132;DHT22;22185;48.738;9.324;2022-11-15T07:19:33;5.10;99.90
36132;DHT22;22185;48.738;9.324;2022-11-15T07:21:36;5.10;99.90
36132;DHT22;22185;48.738;9.324;2022-11-15T07:23:38;5.10;99.90
36132;DHT22;22185;48.738;9.324;2022-11-15T07:25:40;5.10;99.90
36132;DHT22;22185;48.738;9.324;2022-11-15T07:27:42;5.20;99.90
36132;DHT22;22185;48.738;9.324;2022-11-15T07:29:44;5.30;99.90
36132;DHT22;22185;48.738;9.324;2022-11-15T07:31:46;5.30;99.90
36132;DHT22;22185;48.738;9.324;2022-11-15T07:33:48;5.30;99.90
36132;DHT22;22185;48.738;9.324;2022-11-15T07:35:49;5.30;99.90
36132;DHT22;22185;48.738;9.324;2022-11-15T07:39:56;5.30;99.90
36132;DHT22;22185;48.738;9.324;2022-11-15T07:41:58;5.40;99.90
36132;DHT22;22185;48.738;9.324;2022-11-15T07:44:18;5.50;99.90
36132;DHT22;22185;48.738;9.324;2022-11-15T07:46:20;5.60;99.90
36132;DHT22;22185;48.738;9.324;2022-11-15T07:48:22;5.80;99.90
36132;DHT22;22185;48.738;9.324;2022-11-15T07:50:24;5.90;99.90
36132;DHT22;22185;48.738;9.324;2022-11-15T07:52:26;6.00;99.90
36132;DHT22;22185;48.738;9.324;2022-11-15T07:54:28;6.20;99.90
36132;DHT22;22185;48.738;9.324;2022-11-15T07:56:30;6.20;99.90
36132;DHT22;22185;48.738;9.324;2022-11-15T07:58:31;6.30;99.90
36132;DHT22;22185;48.738;9.324;2022-11-15T08:00:33;6.40;99.90
36132;DHT22;22185;48.738;9.324;2022-11-15T08:02:37;6.40;99.90
36132;DHT22;22185;48.738;9.324;2022-11-15T08:04:39;6.50;99.90
36132;DHT22;22185;48.738;9.324;2022-11-15T08:06:41;6.60;99.90
36132;DHT22;22185;48.738;9.324;2022-11-15T08:08:42;6.70;99.90
36132;DHT22;22185;48.738;9.324;2022-11-15T08:10:44;6.80;99.90
36132;DHT22;22185;48.738;9.324;2022-11-15T08:12:46;6.90;99.90
36132;DHT22;22185;48.738;9.324;2022-11-15T08:14:47;6.90;99.90
36132;DHT22;22185;48.738;9.324;2022-11-15T08:16:49;6.90;99.90
36132;DHT22;22185;48.738;9.324;2022-11-15T08:18:52;6.90;99.90
36132;DHT22;22185;48.738;9.324;2022-11-15T08:20:53;7.00;99.90
36132;DHT22;22185;48.738;9.324;2022-11-15T08:22:55;7.00;99.90
36132;DHT22;22185;48.738;9.324;2022-11-15T08:24:59;7.00;99.90
36132;DHT22;22185;48.738;9.324;2022-11-15T08:27:00;7.10;99.90
36132;DHT22;22185;48.738;9.324;2022-11-15T08:29:02;7.10;99.90
36132;DHT22;22185;48.738;9.324;2022-11-15T08:31:04;7.10;99.90
36132;DHT22;22185;48.738;9.324;2022-11-15T08:33:09;7.20;99.90
36132;DHT22;22185;48.738;9.324;2022-11-15T08:35:11;7.30;99.90
36132;DHT22;22185;48.738;9.324;2022-11-15T08:37:13;7.40;99.90
36132;DHT22;22185;48.738;9.324;2022-11-15T08:39:14;7.60;99.90
36132;DHT22;22185;48.738;9.324;2022-11-15T08:41:19;7.60;99.90
36132;DHT22;22185;48.738;9.324;2022-11-15T08:43:23;7.70;99.90
36132;DHT22;22185;48.738;9.324;2022-11-15T08:45:25;7.70;99.90
36132;DHT22;22185;48.738;9.324;2022-11-15T08:47:27;7.70;99.90
36132;DHT22;22185;48.738;9.324;2022-11-15T08:49:28;7.80;99.90
36132;DHT22;22185;48.738;9.324;2022-11-15T08:51:30;7.90;99.90
36132;DHT22;22185;48.738;9.324;2022-11-15T08:53:34;8.00;99.90
36132;DHT22;22185;48.738;9.324;2022-11-15T08:55:36;8.10;99.90
36132;DHT22;22185;48.738;9.324;2022-11-15T08:57:40;8.20;99.90
36132;DHT22;22185;48.738;9.324;2022-11-15T08:59:42;8.30;99.90
36132;DHT22;22185;48.738;9.324;2022-11-15T09:01:46;8.40;99.90
36132;DHT22;22185;48.738;9.324;2022-11-15T09:03:48;8.60;99.90
36132;DHT22;22185;48.738;9.324;2022-11-15T09:05:53;8.70;99.90
36132;DHT22;22185;48.738;9.324;2022-11-15T09:07:55;8.90;99.90
36132;DHT22;22185;48.738;9.324;2022-11-15T09:09:57;8.90;99.90
36132;DHT22;22185;48.738;9.324;2022-11-15T09:11:59;9.10;99.90
36132;DHT22;22185;48.738;9.324;2022-11-15T09:14:03;9.30;99.90
36132;DHT22;22185;48.738;9.324;2022-11-15T09:16:05;9.40;99.90
36132;DHT22;22185;48.738;9.324;2022-11-15T09:18:07;9.50;99.90
36132;DHT22;22185;48.738;9.324;2022-11-15T09:20:08;9.60;99.90
36132;DHT22;22185;48.738;9.324;2022-11-15T09:22:10;9.60;99.90
36132;DHT22;22185;48.738;9.324;2022-11-15T09:24:13;9.70;99.90
36132;DHT22;22185;48.738;9.324;2022-11-15T09:26:14;9.80;99.90
36132;DHT22;22185;48.738;9.324;2022-11-15T09:28:16;9.70;99.90
36132;DHT22;22185;48.738;9.324;2022-11-15T09:30:18;9.80;99.90
36132;DHT22;22185;48.738;9.324;2022-11-15T09:32:20;9.80;99.90
36132;DHT22;22185;48.738;9.324;2022-11-15T09:34:22;9.80;99.90
36132;DHT22;22185;48.738;9.324;2022-11-15T09:36:23;9.80;99.90
36132;DHT22;22185;48.738;9.324;2022-11-15T09:38:26;9.90;99.90
36132;DHT22;22185;48.738;9.324;2022-11-15T09:40:29;10.10;99.90
36132;DHT22;22185;48.738;9.324;2022-11-15T09:42:38;10.30;99.90
36132;DHT22;22185;48.738;9.324;2022-11-15T09:48:54;10.80;99.90
36132;DHT22;22185;48.738;9.324;2022-11-15T09:50:57;10.90;99.90
36132;DHT22;22185;48.738;9.324;2022-11-15T09:53:02;11.00;99.90
36132;DHT22;22185;48.738;9.324;2022-11-15T09:55:04;11.10;99.90
36132;DHT22;22185;48.738;9.324;2022-11-15T09:57:13;11.20;99.90
36132;DHT22;22185;48.738;9.324;2022-11-15T10:03:44;11.70;99.90
36132;DHT22;22185;48.738;9.324;2022-11-15T10:05:57;11.80;99.90
36132;DHT22;22185;48.738;9.324;2022-11-15T10:10:22;12.00;99.90
36132;DHT22;22185;48.738;9.324;2022-11-15T10:12:27;12.20;99.90
36132;DHT22;22185;48.738;9.324;2022-11-15T10:14:29;12.30;99.90
36132;DHT22;22185;48.738;9.324;2022-11-15T10:20:59;12.10;99.90
36132;DHT22;22185;48.738;9.324;2022-11-15T10:23:04;12.20;99.90
36132;DHT22;22185;48.738;9.324;2022-11-15T10:27:11;12.30;99.90
36132;DHT22;22185;48.738;9.324;2022-11-15T10:29:23;12.50;99.90
36132;DHT22;22185;48.738;9.324;2022-11-15T10:31:28;12.70;99.90
36132;DHT22;22185;48.738;9.324;2022-11-15T10:33:33;12.70;99.90
36132;DHT22;22185;48.738;9.324;2022-11-15T10:35:35;12.50;99.90
36132;DHT22;22185;48.738;9.324;2022-11-15T10:37:37;12.60;99.90
36132;DHT22;22185;48.738;9.324;2022-11-15T10:39:38;12.70;99.90
36132;DHT22;22185;48.738;9.324;2022-11-15T10:41:42;12.70;99.90
36132;DHT22;22185;48.738;9.324;2022-11-15T10:43:44;12.70;99.90
36132;DHT22;22185;48.738;9.324;2022-11-15T10:45:46;12.60;99.90
36132;DHT22;22185;48.738;9.324;2022-11-15T10:47:48;12.60;99.90
36132;DHT22;22185;48.738;9.324;2022-11-15T10:49:57;12.50;99.90
36132;DHT22;22185;48.738;9.324;2022-11-15T10:54:13;12.60;99.90
36132;DHT22;22185;48.738;9.324;2022-11-15T10:56:21;12.60;99.90
36132;DHT22;22185;48.738;9.324;2022-11-15T10:58:43;12.50;99.90
36132;DHT22;22185;48.738;9.324;2022-11-15T11:00:45;12.50;99.90
36132;DHT22;22185;48.738;9.324;2022-11-15T11:04:58;12.40;99.90
36132;DHT22;22185;48.738;9.324;2022-11-15T11:07:00;12.40;99.90
36132;DHT22;22185;48.738;9.324;2022-11-15T11:09:03;12.40;99.90
36132;DHT22;22185;48.738;9.324;2022-11-15T11:11:05;12.40;99.90
36132;DHT22;22185;48.738;9.324;2022-11-15T11:13:23;12.50;99.90
36132;DHT22;22185;48.738;9.324;2022-11-15T11:15:26;12.60;99.90
36132;DHT22;22185;48.738;9.324;2022-11-15T11:17:34;12.50;99.90
36132;DHT22;22185;48.738;9.324;2022-11-15T11:23:45;12.40;99.90
36132;DHT22;22185;48.738;9.324;2022-11-15T11:26:12;12.40;99.90
36132;DHT22;22185;48.738;9.324;2022-11-15T11:28:19;12.40;99.90
36132;DHT22;22185;48.738;9.324;2022-11-15T11:31:26;12.60;99.90
36132;DHT22;22185;48.738;9.324;2022-11-15T11:37:07;12.80;99.90
36132;DHT22;22185;48.738;9.324;2022-11-15T11:48:12;12.90;99.90
36132;DHT22;22185;48.738;9.324;2022-11-15T11:50:17;13.00;99.90
36132;DHT22;22185;48.738;9.324;2022-11-15T11:52:39;12.90;99.90
36132;DHT22;22185;48.738;9.324;2022-11-15T11:54:53;12.90;99.90
36132;DHT22;22185;48.738;9.324;2022-11-15T11:56:56;12.90;99.90
36132;DHT22;22185;48.738;9.324;2022-11-15T11:59:05;13.00;99.90
36132;DHT22;22185;48.738;9.324;2022-11-15T12:05:46;13.30;99.90
36132;DHT22;22185;48.738;9.324;2022-11-15T12:07:50;13.40;99.90
36132;DHT22;22185;48.738;9.324;2022-11-15T12:12:23;13.60;99.90
36132;DHT22;22185;48.738;9.324;2022-11-15T12:14:33;13.60;99.90
36132;DHT22;22185;48.738;9.324;2022-11-15T12:16:37;13.60;99.90
36132;DHT22;22185;48.738;9.324;2022-11-15T12:18:41;13.50;99.90
36132;DHT22;22185;48.738;9.324;2022-11-15T12:23:07;13.40;99.90
36132;DHT22;22185;48.738;9.324;2022-11-15T12:29:37;13.20;99.90
36132;DHT22;22185;48.738;9.324;2022-11-15T12:31:41;13.10;99.90
36132;DHT22;22185;48.738;9.324;2022-11-15T12:33:48;13.10;99.90
36132;DHT22;22185;48.738;9.324;2022-11-15T12:35:57;13.10;99.90
36132;DHT22;22185;48.738;9.324;2022-11-15T12:37:59;13.10;99.90
36132;DHT22;22185;48.738;9.324;2022-11-15T12:40:14;13.00;99.90
36132;DHT22;22185;48.738;9.324;2022-11-15T12:55:28;13.00;99.90
36132;DHT22;22185;48.738;9.324;2022-11-15T12:57:32;12.90;99.90
36132;DHT22;22185;48.738;9.324;2022-11-15T12:59:49;12.90;99.90
36132;DHT22;22185;48.738;9.324;2022-11-15T13:01:54;12.90;99.90
36132;DHT22;22185;48.738;9.324;2022-11-15T13:07:01;12.80;99.90
36132;DHT22;22185;48.738;9.324;2022-11-15T13:08:44;12.90;99.90
36132;DHT22;22185;48.738;9.324;2022-11-15T13:10:48;12.80;99.90
36132;DHT22;22185;48.738;9.324;2022-11-15T13:12:51;12.80;99.90
36132;DHT22;22185;48.738;9.324;2022-11-15T13:14:56;12.90;99.90
36132;DHT22;22185;48.738;9.324;2022-11-15T13:16:58;12.80;99.90
36132;DHT22;22185;48.738;9.324;2022-11-15T13:19:00;12.80;99.90
36132;DHT22;22185;48.738;9.324;2022-11-15T13:21:04;12.90;99.90
36132;DHT22;22185;48.738;9.324;2022-11-15T13:23:26;12.90;99.90
36132;DHT22;22185;48.738;9.324;2022-11-15T13:26:02;12.90;99.90
36132;DHT22;22185;48.738;9.324;2022-11-15T13:27:56;12.90;99.90
36132;DHT22;22185;48.738;9.324;2022-11-15T13:30:04;13.00;99.90
36132;DHT22;22185;48.738;9.324;2022-11-15T13:32:10;13.00;99.90
36132;DHT22;22185;48.738;9.324;2022-11-15T13:36:36;13.00;99.90
36132;DHT22;22185;48.738;9.324;2022-11-15T13:38:38;13.00;99.90
36132;DHT22;22185;48.738;9.324;2022-11-15T13:40:40;13.00;99.90
36132;DHT22;22185;48.738;9.324;2022-11-15T13:42:42;13.10;99.90
36132;DHT22;22185;48.738;9.324;2022-11-15T13:49:07;13.10;99.90
36132;DHT22;22185;48.738;9.324;2022-11-15T13:51:20;13.00;99.90
36132;DHT22;22185;48.738;9.324;2022-11-15T13:53:24;13.00;99.90
36132;DHT22;22185;48.738;9.324;2022-11-15T13:55:25;13.00;99.90
36132;DHT22;22185;48.738;9.324;2022-11-15T13:57:29;13.00;99.90
36132;DHT22;22185;48.738;9.324;2022-11-15T13:59:36;13.00;99.90
36132;DHT22;22185;48.738;9.324;2022-11-15T14:01:39;13.00;99.90
36132;DHT22;22185;48.738;9.324;2022-11-15T14:03:47;12.90;99.90
36132;DHT22;22185;48.738;9.324;2022-11-15T14:06:11;12.90;99.90
36132;DHT22;22185;48.738;9.324;2022-11-15T14:12:52;12.80;99.90
36132;DHT22;22185;48.738;9.324;2022-11-15T14:14:54;12.90;99.90
36132;DHT22;22185;48.738;9.324;2022-11-15T14:16:59;12.80;99.90
36132;DHT22;22185;48.738;9.324;2022-11-15T14:19:01;12.70;99.90
36132;DHT22;22185;48.738;9.324;2022-11-15T14:21:07;12.50;99.90
36132;DHT22;22185;48.738;9.324;2022-11-15T14:23:19;12.40;99.90
36132;DHT22;22185;48.738;9.324;2022-11-15T14:25:25;12.30;99.90
36132;DHT22;22185;48.738;9.324;2022-11-15T14:27:28;12.20;99.90
36132;DHT22;22185;48.738;9.324;2022-11-15T14:29:30;12.20;99.90
36132;DHT22;22185;48.738;9.324;2022-11-15T14:31:32;12.10;99.90
36132;DHT22;22185;48.738;9.324;2022-11-15T14:33:35;12.00;99.90
36132;DHT22;22185;48.738;9.324;2022-11-15T14:35:37;12.00;99.90
36132;DHT22;22185;48.738;9.324;2022-11-15T14:37:39;11.90;99.90
36132;DHT22;22185;48.738;9.324;2022-11-15T14:39:42;11.80;99.90
36132;DHT22;22185;48.738;9.324;2022-11-15T14:41:44;11.80;99.90
36132;DHT22;22185;48.738;9.324;2022-11-15T14:43:46;11.80;99.90
36132;DHT22;22185;48.738;9.324;2022-11-15T14:45:47;11.80;99.90
36132;DHT22;22185;48.738;9.324;2022-11-15T14:47:49;11.70;99.90
36132;DHT22;22185;48.738;9.324;2022-11-15T14:49:51;11.60;99.90
36132;DHT22;22185;48.738;9.324;2022-11-15T14:51:52;11.60;99.90
36132;DHT22;22185;48.738;9.324;2022-11-15T14:53:54;11.50;99.90
36132;DHT22;22185;48.738;9.324;2022-11-15T14:55:56;11.50;99.90
36132;DHT22;22185;48.738;9.324;2022-11-15T14:57:58;11.50;99.90
36132;DHT22;22185;48.738;9.324;2022-11-15T15:00:00;11.40;99.90